createdAt,value
2018-09-03T00:01:15.132Z,53.27
2018-09-03T00:03:44.280Z,52.64
2018-09-03T00:06:13.476Z,53.03
2018-09-03T00:08:42.428Z,51.76
2018-09-03T00:11:11.717Z,52.60
2018-09-03T00:13:41.059Z,52.09
2018-09-03T00:16:10.303Z,52.61
2018-09-03T00:18:39.300Z,52.08
2018-09-03T00:21:08.445Z,52.50
2018-09-03T00:23:37.680Z,52.17
2018-09-03T00:26:07.016Z,53.14
2018-09-03T00:28:36.253Z,54.01
2018-09-03T00:31:10.376Z,52.02
2018-09-03T00:33:44.919Z,52.06
2018-09-03T00:36:19.363Z,53.41
2018-09-03T00:38:53.235Z,53.02
2018-09-03T00:41:27.135Z,52.84
2018-09-03T00:46:34.984Z,54.03
2018-09-03T00:49:04.276Z,55.12
2018-09-03T00:51:33.242Z,54.06
2018-09-03T00:54:02.636Z,53.82
2018-09-03T00:56:31.873Z,53.37
2018-09-03T00:59:01.086Z,54.17
2018-09-03T01:01:30.142Z,54.56
2018-09-03T01:03:59.420Z,55.18
2018-09-03T01:06:28.596Z,54.79
2018-09-03T01:08:58.052Z,54.62
2018-09-03T01:11:27.010Z,55.04
2018-09-03T01:13:56.858Z,54.44
2018-09-03T01:16:25.911Z,55.20
2018-09-03T01:18:56.452Z,54.84
2018-09-03T01:21:26.591Z,55.34
2018-09-03T01:23:56.312Z,55.09
2018-09-03T01:26:25.558Z,55.09
2018-09-03T01:28:54.735Z,54.89
2018-09-03T01:31:23.880Z,55.39
2018-09-03T01:33:54.039Z,57.01
2018-09-03T01:36:23.263Z,56.94
2018-09-03T01:38:52.448Z,56.70
2018-09-03T01:41:21.692Z,56.24
2018-09-03T01:43:50.811Z,56.01
2018-09-03T01:46:20.166Z,56.01
2018-09-03T01:48:49.288Z,55.57
2018-09-03T01:51:18.253Z,54.86
2018-09-03T01:53:47.658Z,56.00
2018-09-03T01:56:16.849Z,55.43
2018-09-03T01:58:46.003Z,55.60
2018-09-03T02:01:15.224Z,55.59
2018-09-03T02:03:44.727Z,56.61
2018-09-03T02:06:14.173Z,56.72
2018-09-03T02:08:43.024Z,57.26
2018-09-03T02:11:12.316Z,57.04
2018-09-03T02:13:41.610Z,56.96
2018-09-03T02:16:10.915Z,56.80
2018-09-03T02:18:40.182Z,56.46
2018-09-03T02:21:09.664Z,55.64
2018-09-03T02:23:39.285Z,56.26
2018-09-03T02:26:08.523Z,56.59
2018-09-03T02:28:37.723Z,56.77
2018-09-03T02:31:07.114Z,57.65
2018-09-03T02:33:36.524Z,58.05
2018-09-03T02:36:06.075Z,57.34
2018-09-03T02:38:35.211Z,57.21
2018-09-03T02:41:04.628Z,57.63
2018-09-03T02:43:33.540Z,57.47
2018-09-03T02:46:02.810Z,57.32
2018-09-03T02:48:31.871Z,57.03
2018-09-03T02:51:01.251Z,57.30
2018-09-03T02:53:30.360Z,57.26
2018-09-03T02:55:59.385Z,56.52
2018-09-03T02:58:28.551Z,56.90
2018-09-03T03:00:57.988Z,57.83
2018-09-03T03:03:27.195Z,57.45
2018-09-03T03:05:56.264Z,57.56
2018-09-03T03:08:25.504Z,57.58
2018-09-03T03:10:54.573Z,56.33
2018-09-03T03:13:23.801Z,56.37
2018-09-03T03:15:52.874Z,56.99
2018-09-03T03:18:22.260Z,57.70
2018-09-03T03:20:51.706Z,57.29
2018-09-03T03:23:21.031Z,57.74
2018-09-03T03:25:50.416Z,57.70
2018-09-03T03:28:19.805Z,57.46
2018-09-03T03:30:48.967Z,57.09
2018-09-03T03:33:18.235Z,57.55
2018-09-03T03:35:47.203Z,57.57
2018-09-03T03:38:16.152Z,58.20
2018-09-03T03:40:45.294Z,56.47
2018-09-03T03:43:14.543Z,57.40
2018-09-03T03:45:43.745Z,57.31
2018-09-03T03:48:12.975Z,57.58
2018-09-03T03:50:42.237Z,57.08
2018-09-03T03:53:11.470Z,57.46
2018-09-03T03:55:40.771Z,56.90
2018-09-03T03:58:10.159Z,57.43
2018-09-03T04:00:39.559Z,56.65
2018-09-03T04:03:08.516Z,56.04
2018-09-03T04:05:37.804Z,56.98
2018-09-03T04:08:07.008Z,56.87
2018-09-03T04:10:36.256Z,57.69
2018-09-03T04:13:06.025Z,58.89
2018-09-03T04:15:36.300Z,59.51
2018-09-03T04:18:05.427Z,57.95
2018-09-03T04:20:34.641Z,56.88
2018-09-03T04:23:03.940Z,58.40
2018-09-03T04:25:33.151Z,58.90
2018-09-03T04:28:02.627Z,59.48
2018-09-03T04:30:31.827Z,59.86
2018-09-03T04:33:00.984Z,59.63
2018-09-03T04:35:30.172Z,59.22
2018-09-03T04:37:59.224Z,59.24
2018-09-03T04:40:28.353Z,57.68
2018-09-03T04:42:57.616Z,58.51
2018-09-03T04:45:26.655Z,59.39
2018-09-03T04:47:56.020Z,58.97
2018-09-03T04:50:25.319Z,58.91
2018-09-03T04:52:54.453Z,55.06
2018-09-03T04:55:23.876Z,55.74
2018-09-03T04:57:53.141Z,56.47
2018-09-03T05:00:22.480Z,56.87
2018-09-03T05:02:51.695Z,57.19
2018-09-03T05:05:21.019Z,57.23
2018-09-03T05:07:50.393Z,56.40
2018-09-03T05:10:19.587Z,55.46
2018-09-03T05:12:50.176Z,55.37
2018-09-03T05:15:19.661Z,55.69
2018-09-03T05:17:48.992Z,55.47
2018-09-03T05:20:18.308Z,55.88
2018-09-03T05:22:47.554Z,55.20
2018-09-03T05:25:16.935Z,55.31
2018-09-03T05:27:46.095Z,53.84
2018-09-03T05:30:15.353Z,54.10
2018-09-03T05:32:44.743Z,54.42
2018-09-03T05:35:14.108Z,53.37
2018-09-03T05:37:43.463Z,53.89
2018-09-03T05:40:12.419Z,54.56
2018-09-03T05:42:41.831Z,53.85
2018-09-03T05:45:10.906Z,52.94
2018-09-03T05:47:40.411Z,53.23
2018-09-03T05:50:09.722Z,52.21
2018-09-03T05:52:39.149Z,51.82
2018-09-03T05:55:08.438Z,51.75
2018-09-03T05:57:37.796Z,52.49
2018-09-03T06:00:07.542Z,50.58
2018-09-03T06:02:36.512Z,50.00
2018-09-03T06:05:05.615Z,51.12
2018-09-03T06:07:34.920Z,50.29
2018-09-03T06:10:04.246Z,50.74
2018-09-03T06:12:33.272Z,50.81
2018-09-03T06:15:02.309Z,51.86
2018-09-03T06:17:31.736Z,51.32
2018-09-03T06:20:00.936Z,51.97
2018-09-03T06:22:30.317Z,51.19
2018-09-03T06:24:59.639Z,50.81
2018-09-03T06:27:28.691Z,51.03
2018-09-03T06:29:57.895Z,49.45
2018-09-03T06:32:27.168Z,49.46
2018-09-03T06:34:56.513Z,48.94
2018-09-03T06:37:25.863Z,49.53
2018-09-03T06:39:55.214Z,50.04
2018-09-03T06:42:24.517Z,48.67
2018-09-03T06:44:53.622Z,48.67
2018-09-03T06:47:23.003Z,49.55
2018-09-03T06:49:52.143Z,48.19
2018-09-03T06:52:21.357Z,47.33
2018-09-03T06:54:50.716Z,45.86
2018-09-03T06:57:20.152Z,46.10
2018-09-03T06:59:49.149Z,46.29
2018-09-03T07:02:18.377Z,45.49
2018-09-03T07:04:47.848Z,46.28
2018-09-03T07:07:16.957Z,45.98
2018-09-03T07:09:46.404Z,45.18
2018-09-03T07:12:15.748Z,45.07
2018-09-03T07:14:44.739Z,45.08
2018-09-03T07:17:13.926Z,44.09
2018-09-03T07:19:43.139Z,42.98
2018-09-03T07:22:12.589Z,42.77
2018-09-03T07:24:41.935Z,43.68
2018-09-03T07:27:11.307Z,44.10
2018-09-03T07:29:40.730Z,44.67
2018-09-03T07:32:10.107Z,44.12
2018-09-03T07:34:39.338Z,43.94
2018-09-03T07:37:08.524Z,43.66
2018-09-03T07:39:37.792Z,44.14
2018-09-03T07:42:07.099Z,43.56
2018-09-03T07:44:36.266Z,43.14
2018-09-03T07:47:05.672Z,41.32
2018-09-03T07:49:35.036Z,40.61
2018-09-03T07:52:04.380Z,41.44
2018-09-03T07:54:33.331Z,40.71
2018-09-03T07:57:02.771Z,41.15
2018-09-03T07:59:32.065Z,40.00
2018-09-03T08:02:01.659Z,38.29
2018-09-03T08:04:31.180Z,37.50
2018-09-03T08:07:00.620Z,35.10
2018-09-03T08:09:29.863Z,33.40
2018-09-03T08:11:59.078Z,34.07
2018-09-03T08:14:28.474Z,32.45
2018-09-03T08:16:57.728Z,31.22
2018-09-03T08:19:26.930Z,30.06
2018-09-03T08:21:55.943Z,29.22
2018-09-03T08:24:25.352Z,27.93
2018-09-03T08:26:54.741Z,27.68
2018-09-03T08:29:23.699Z,26.28
2018-09-03T08:31:53.155Z,26.45
2018-09-03T08:34:22.200Z,25.95
2018-09-03T08:36:51.445Z,25.86
2018-09-03T08:39:20.506Z,25.96
2018-09-03T08:41:49.836Z,25.93
2018-09-03T08:44:18.735Z,25.16
2018-09-03T08:46:47.999Z,25.89
2018-09-03T08:49:17.389Z,24.94
2018-09-03T08:51:46.280Z,24.97
2018-09-03T08:54:15.472Z,24.75
2018-09-03T08:56:44.703Z,24.99
2018-09-03T08:59:14.118Z,24.89
2018-09-03T09:01:43.521Z,24.25
2018-09-03T09:04:12.723Z,25.13
2018-09-03T09:06:41.725Z,25.36
2018-09-03T09:09:10.925Z,24.81
2018-09-03T09:11:40.118Z,25.23
2018-09-03T09:14:09.496Z,25.59
2018-09-03T09:16:38.596Z,25.87
2018-09-03T09:19:07.676Z,26.27
2018-09-03T09:21:36.936Z,27.35
2018-09-03T09:24:06.386Z,27.30
2018-09-03T09:26:35.894Z,27.79
2018-09-03T09:29:05.340Z,28.11
2018-09-03T09:31:34.811Z,27.52
2018-09-03T09:34:03.668Z,27.84
2018-09-03T09:36:33.010Z,27.08
2018-09-03T09:39:02.393Z,25.81
2018-09-03T09:41:34.123Z,24.95
2018-09-03T09:44:04.411Z,23.76
2018-09-03T09:46:33.834Z,22.99
2018-09-03T09:49:03.165Z,22.42
2018-09-03T09:51:32.521Z,21.30
2018-09-03T09:54:01.414Z,21.22
2018-09-03T09:56:30.485Z,19.96
2018-09-03T09:58:59.780Z,18.71
2018-09-03T10:01:35.862Z,18.59
2018-09-03T10:04:04.970Z,17.49
2018-09-03T10:06:34.283Z,17.73
2018-09-03T10:09:04.467Z,17.37
2018-09-03T10:11:33.821Z,16.39
2018-09-03T10:14:03.179Z,15.87
2018-09-03T10:19:09.522Z,15.34
2018-09-03T10:21:38.762Z,15.87
2018-09-03T10:24:07.669Z,14.77
2018-09-03T10:26:37.093Z,15.02
2018-09-03T10:29:06.323Z,14.85
2018-09-03T10:31:35.388Z,14.69
2018-09-03T10:34:04.640Z,14.06
2018-09-03T10:36:33.935Z,14.48
2018-09-03T10:39:03.366Z,14.82
2018-09-03T10:41:32.576Z,15.33
2018-09-03T10:44:01.767Z,15.40
2018-09-03T10:46:31.001Z,14.80
2018-09-03T10:49:00.235Z,14.60
2018-09-03T10:51:29.411Z,14.81
2018-09-03T10:53:58.550Z,14.14
2018-09-03T10:56:27.571Z,13.87
2018-09-03T10:58:56.912Z,14.14
2018-09-03T11:01:25.856Z,13.43
2018-09-03T11:03:55.199Z,13.72
2018-09-03T11:06:24.453Z,13.35
2018-09-03T11:08:53.493Z,13.54
2018-09-03T11:11:22.777Z,13.97
2018-09-03T11:13:52.045Z,13.29
2018-09-03T11:16:21.436Z,13.14
2018-09-03T11:18:50.515Z,12.93
2018-09-03T11:21:20.364Z,13.25
2018-09-03T11:23:49.560Z,12.60
2018-09-03T11:26:18.681Z,13.12
2018-09-03T11:28:47.830Z,13.24
2018-09-03T11:31:17.090Z,13.21
2018-09-03T11:33:46.276Z,12.37
2018-09-03T11:36:15.235Z,12.40
2018-09-03T11:38:44.575Z,13.56
2018-09-03T11:41:13.883Z,12.48
2018-09-03T11:43:43.093Z,13.12
2018-09-03T11:46:12.469Z,12.19
2018-09-03T11:48:41.483Z,11.85
2018-09-03T11:51:10.741Z,12.57
2018-09-03T11:53:40.135Z,12.56
2018-09-03T11:56:09.349Z,12.88
2018-09-03T11:58:38.520Z,13.63
2018-09-03T12:01:08.057Z,12.96
2018-09-03T12:03:37.249Z,12.37
2018-09-03T12:06:06.702Z,13.43
2018-09-03T12:08:35.927Z,13.75
2018-09-03T12:11:05.353Z,14.07
2018-09-03T12:13:34.555Z,13.26
2018-09-03T12:16:09.688Z,13.11
2018-09-03T12:18:39.790Z,13.17
2018-09-03T12:21:09.099Z,12.76
2018-09-03T12:23:38.216Z,12.96
2018-09-03T12:26:08.311Z,12.91
2018-09-03T12:28:37.761Z,13.01
2018-09-03T12:31:07.316Z,13.14
2018-09-03T12:33:36.530Z,13.21
2018-09-03T12:36:06.383Z,13.56
2018-09-03T12:38:35.930Z,13.51
2018-09-03T12:41:06.061Z,14.07
2018-09-03T12:43:35.775Z,14.79
2018-09-03T12:46:06.358Z,14.90
2018-09-03T12:48:35.315Z,14.72
2018-09-03T12:51:05.258Z,14.56
2018-09-03T12:53:35.820Z,14.34
2018-09-03T12:56:05.204Z,14.12
2018-09-03T12:58:34.483Z,14.73
2018-09-03T13:01:03.555Z,14.53
2018-09-03T13:03:32.885Z,14.25
2018-09-03T13:06:02.054Z,13.78
2018-09-03T13:08:31.273Z,13.76
2018-09-03T13:11:00.664Z,14.28
2018-09-03T13:13:29.916Z,14.00
2018-09-03T13:15:59.180Z,13.75
2018-09-03T13:18:28.064Z,14.65
2018-09-03T13:20:57.016Z,14.32
2018-09-03T13:23:26.019Z,14.53
2018-09-03T13:25:55.315Z,15.28
2018-09-03T13:28:24.614Z,16.58
2018-09-03T13:30:53.634Z,17.29
2018-09-03T13:33:22.881Z,17.73
2018-09-03T13:35:51.998Z,18.74
2018-09-03T13:38:21.011Z,19.43
2018-09-03T13:40:50.133Z,19.48
2018-09-03T13:43:19.396Z,19.57
2018-09-03T13:45:48.591Z,19.99
2018-09-03T13:48:17.844Z,20.31
2018-09-03T13:50:46.685Z,21.31
2018-09-03T13:53:16.028Z,22.33
2018-09-03T13:55:45.196Z,22.26
2018-09-03T13:58:14.414Z,22.50
2018-09-03T14:00:43.615Z,22.72
2018-09-03T14:03:12.926Z,23.00
2018-09-03T14:05:42.224Z,22.22
2018-09-03T14:08:11.475Z,22.67
2018-09-03T14:10:40.665Z,23.19
2018-09-03T14:13:09.710Z,23.89
2018-09-03T14:15:38.884Z,24.23
2018-09-03T14:18:08.423Z,24.84
2018-09-03T14:20:37.550Z,23.74
2018-09-03T14:23:06.960Z,23.58
2018-09-03T14:25:36.200Z,24.59
2018-09-03T14:28:05.459Z,24.37
2018-09-03T14:30:34.853Z,24.77
2018-09-03T14:33:04.036Z,24.91
2018-09-03T14:35:32.872Z,24.70
2018-09-03T14:38:01.767Z,24.95
2018-09-03T14:40:31.039Z,25.12
2018-09-03T14:43:00.095Z,25.89
2018-09-03T14:45:29.221Z,26.08
2018-09-03T14:47:58.717Z,26.53
2018-09-03T14:50:27.615Z,26.27
2018-09-03T14:52:56.959Z,26.93
2018-09-03T14:55:26.253Z,26.70
2018-09-03T14:57:55.403Z,27.73
2018-09-03T15:00:24.832Z,27.99
2018-09-03T15:02:54.059Z,27.78
2018-09-03T15:05:23.250Z,28.45
2018-09-03T15:07:52.499Z,28.52
2018-09-03T15:10:21.391Z,28.48
2018-09-03T15:12:50.527Z,29.26
2018-09-03T15:15:19.767Z,29.22
2018-09-03T15:17:49.015Z,29.49
2018-09-03T15:20:18.367Z,29.36
2018-09-03T15:22:47.573Z,29.66
2018-09-03T15:25:16.867Z,29.93
2018-09-03T15:27:46.220Z,29.39
2018-09-03T15:30:15.471Z,30.03
2018-09-03T15:32:44.669Z,30.45
2018-09-03T15:35:14.007Z,30.93
2018-09-03T15:37:43.151Z,30.56
2018-09-03T15:40:12.415Z,30.91
2018-09-03T15:42:41.615Z,30.45
2018-09-03T15:45:11.012Z,30.26
2018-09-03T15:47:40.166Z,31.21
2018-09-03T15:50:09.660Z,31.23
2018-09-03T15:52:38.867Z,31.39
2018-09-03T15:55:08.172Z,31.11
2018-09-03T15:57:37.494Z,32.29
2018-09-03T16:00:07.835Z,32.95
2018-09-03T16:02:36.880Z,33.52
2018-09-03T16:05:06.375Z,33.28
2018-09-03T16:07:35.336Z,32.54
2018-09-03T16:10:04.620Z,33.50
2018-09-03T16:12:33.803Z,33.32
2018-09-03T16:15:02.788Z,33.68
2018-09-03T16:17:31.835Z,33.77
2018-09-03T16:20:00.795Z,32.98
2018-09-03T16:22:30.146Z,33.50
2018-09-03T16:24:59.527Z,32.54
2018-09-03T16:27:28.891Z,32.82
2018-09-03T16:29:58.293Z,32.81
2018-09-03T16:32:27.433Z,33.55
2018-09-03T16:34:56.715Z,32.99
2018-09-03T16:37:26.034Z,33.16
2018-09-03T16:39:54.939Z,32.96
2018-09-03T16:42:24.587Z,34.08
2018-09-03T16:44:54.036Z,33.34
2018-09-03T16:47:22.991Z,33.49
2018-09-03T16:49:52.428Z,33.54
2018-09-03T16:52:21.600Z,34.42
2018-09-03T16:54:50.773Z,33.46
2018-09-03T16:57:20.224Z,34.27
2018-09-03T16:59:49.457Z,33.18
2018-09-03T17:02:18.672Z,34.11
2018-09-03T17:04:47.555Z,33.59
2018-09-03T17:07:16.628Z,33.40
2018-09-03T17:09:45.887Z,33.58
2018-09-03T17:12:14.867Z,33.93
2018-09-03T17:14:44.188Z,34.28
2018-09-03T17:17:13.005Z,33.85
2018-09-03T17:19:42.478Z,34.07
2018-09-03T17:22:11.508Z,34.67
2018-09-03T17:24:40.696Z,34.95
2018-09-03T17:27:10.012Z,35.37
2018-09-03T17:29:39.213Z,35.29
2018-09-03T17:32:08.563Z,35.79
2018-09-03T17:34:38.041Z,34.56
2018-09-03T17:37:07.358Z,35.63
2018-09-03T17:39:36.647Z,35.60
2018-09-03T17:42:05.960Z,36.39
2018-09-03T17:44:34.999Z,35.78
2018-09-03T17:47:04.363Z,34.90
2018-09-03T17:49:33.414Z,35.54
2018-09-03T17:52:02.557Z,36.39
2018-09-03T17:54:31.783Z,35.95
2018-09-03T17:57:00.764Z,37.23
2018-09-03T17:59:29.890Z,37.85
2018-09-03T18:01:59.058Z,38.04
2018-09-03T18:04:28.454Z,38.06
2018-09-03T18:06:57.775Z,38.79
2018-09-03T18:09:26.684Z,40.11
2018-09-03T18:11:55.958Z,41.18
2018-09-03T18:14:25.268Z,41.15
2018-09-03T18:16:54.495Z,41.45
2018-09-03T18:19:24.511Z,41.79
2018-09-03T18:21:53.879Z,42.12
2018-09-03T18:24:23.139Z,43.80
2018-09-03T18:26:52.484Z,44.50
2018-09-03T18:29:21.365Z,44.52
2018-09-03T18:31:50.626Z,45.63
2018-09-03T18:34:19.782Z,45.57
2018-09-03T18:36:49.106Z,46.82
2018-09-03T18:39:18.056Z,46.55
2018-09-03T18:41:47.515Z,46.13
2018-09-03T18:44:16.751Z,46.24
2018-09-03T18:46:46.111Z,46.74
2018-09-03T18:49:15.324Z,46.21
2018-09-03T18:51:46.328Z,46.85
2018-09-03T18:54:15.634Z,48.02
2018-09-03T18:56:44.949Z,48.25
2018-09-03T18:59:14.250Z,48.34
2018-09-03T19:01:43.632Z,48.91
2018-09-03T19:04:12.892Z,48.54
2018-09-03T19:06:42.279Z,48.52
2018-09-03T19:09:11.444Z,48.65
2018-09-03T19:11:40.747Z,48.37
2018-09-03T19:14:09.979Z,48.28
2018-09-03T19:16:39.556Z,49.41
2018-09-03T19:19:08.826Z,48.31
2018-09-03T19:21:38.125Z,48.38
2018-09-03T19:24:07.301Z,49.59
2018-09-03T19:26:36.723Z,48.91
2018-09-03T19:29:05.763Z,48.81
2018-09-03T19:31:35.130Z,48.92
2018-09-03T19:34:05.153Z,49.43
2018-09-03T19:36:34.628Z,48.22
2018-09-03T19:39:04.096Z,48.52
2018-09-03T19:41:33.399Z,48.71
2018-09-03T19:44:02.792Z,48.04
2018-09-03T19:46:31.807Z,49.36
2018-09-03T19:49:01.235Z,48.62
2018-09-03T19:51:30.297Z,49.32
2018-09-03T19:53:59.522Z,49.61
2018-09-03T19:56:28.910Z,48.74
2018-09-03T19:58:57.824Z,49.77
2018-09-03T20:01:27.085Z,50.18
2018-09-03T20:03:56.198Z,50.06
2018-09-03T20:06:25.516Z,49.40
2018-09-03T20:08:54.531Z,50.81
2018-09-03T20:11:23.861Z,50.61
2018-09-03T20:13:53.079Z,50.73
2018-09-03T20:16:22.031Z,50.53
2018-09-03T20:18:51.065Z,50.37
2018-09-03T20:21:20.456Z,50.60
2018-09-03T20:23:49.582Z,51.15
2018-09-03T20:26:18.643Z,51.25
2018-09-03T20:28:48.026Z,52.62
2018-09-03T20:31:17.375Z,52.84
2018-09-03T20:33:46.724Z,53.44
2018-09-03T20:36:16.183Z,53.22
2018-09-03T20:38:45.627Z,53.21
2018-09-03T20:41:15.023Z,52.92
2018-09-03T20:43:44.223Z,52.88
2018-09-03T20:46:13.253Z,54.14
2018-09-03T20:48:42.699Z,54.14
2018-09-03T20:51:11.759Z,54.31
2018-09-03T20:53:41.036Z,54.21
2018-09-03T20:56:10.032Z,54.41
2018-09-03T20:58:38.962Z,55.07
2018-09-03T21:01:08.442Z,54.72
2018-09-03T21:03:37.792Z,55.51
2018-09-03T21:06:06.892Z,54.38
2018-09-03T21:08:36.175Z,55.12
2018-09-03T21:11:05.505Z,55.33
2018-09-03T21:13:34.884Z,55.70
2018-09-03T21:16:03.896Z,54.97
2018-09-03T21:18:33.330Z,55.02
2018-09-03T21:21:02.719Z,54.02
2018-09-03T21:23:32.044Z,55.30
2018-09-03T21:26:01.380Z,55.02
2018-09-03T21:28:30.960Z,55.49
2018-09-03T21:31:00.349Z,55.64
2018-09-03T21:33:29.352Z,54.81
2018-09-03T21:35:58.546Z,54.82
2018-09-03T21:38:28.024Z,54.50
2018-09-03T21:40:56.949Z,55.34
2018-09-03T21:43:26.273Z,54.10
2018-09-03T21:45:55.485Z,54.31
2018-09-03T21:48:24.806Z,54.62
2018-09-03T21:50:53.915Z,53.33
2018-09-03T21:53:23.408Z,54.01
2018-09-03T21:55:52.751Z,53.67
2018-09-03T21:58:22.108Z,53.67
2018-09-03T22:00:51.464Z,53.82
2018-09-03T22:03:20.807Z,53.97
2018-09-03T22:05:50.068Z,54.14
2018-09-03T22:08:19.072Z,54.92
2018-09-03T22:10:48.283Z,55.41
2018-09-03T22:13:17.332Z,54.82
2018-09-03T22:15:46.681Z,55.45
2018-09-03T22:18:15.953Z,55.67
2018-09-03T22:20:45.348Z,55.52
2018-09-03T22:23:14.739Z,54.88
2018-09-03T22:25:43.759Z,55.82
2018-09-03T22:28:13.035Z,55.23
2018-09-03T22:30:42.453Z,55.84
2018-09-03T22:33:11.840Z,54.93
2018-09-03T22:35:41.176Z,55.80
2018-09-03T22:38:10.494Z,56.34
2018-09-03T22:40:39.720Z,55.79
2018-09-03T22:43:09.031Z,55.80
2018-09-03T22:45:38.349Z,56.60
2018-09-03T22:48:07.337Z,57.55
2018-09-03T22:50:36.417Z,56.92
2018-09-03T22:53:05.866Z,57.79
2018-09-03T22:55:34.867Z,57.36
2018-09-03T22:58:03.843Z,57.56
2018-09-03T23:00:33.248Z,57.67
2018-09-03T23:03:02.204Z,57.46
2018-09-03T23:05:31.578Z,58.19
2018-09-03T23:08:00.635Z,58.97
2018-09-03T23:10:29.837Z,58.54
2018-09-03T23:12:59.373Z,59.62
2018-09-03T23:15:28.587Z,59.01
2018-09-03T23:17:57.851Z,58.91
2018-09-03T23:20:27.178Z,59.03
2018-09-03T23:22:56.719Z,59.08
2018-09-03T23:25:26.027Z,58.28
2018-09-03T23:27:55.439Z,58.78
2018-09-03T23:30:24.464Z,59.05
2018-09-03T23:32:53.344Z,58.86
2018-09-03T23:35:22.280Z,58.79
2018-09-03T23:37:51.394Z,59.35
2018-09-03T23:40:20.644Z,59.46
2018-09-03T23:42:49.898Z,59.51
2018-09-03T23:45:19.297Z,59.74
2018-09-03T23:47:48.500Z,60.04
2018-09-03T23:50:17.783Z,60.71
2018-09-03T23:52:47.042Z,61.04
2018-09-03T23:55:15.952Z,60.21
2018-09-03T23:57:45.412Z,60.67
